Archiv-/Tagesdaten

--Timestamp---	Temp	Chill	HIndex	Humid	Dewpt	Wind	HiWind	WindDir	Rain	Barom	Solar	ET	UV
--------------	----	-----	------	-----	-----	----	------	-------	----	-----	-----	--	--
20071119 00:05	-1.3	-1.3	-1.3	88	-3.1	5	11	135	0.00	1011.077	0	0.000	0
20071119 00:10	-1.3	-1.3	-1.3	88	-3.1	5	10	135	0.00	1011.077	0	0.000	0
20071119 00:15	-1.3	-1.3	-1.3	88	-3.1	5	11	135	0.00	1011.179	0	0.000	0
20071119 00:20	-1.4	-3.8	-1.4	88	-3.1	6	14	135	0.00	1011.145	0	0.000	0
20071119 00:25	-1.4	-1.4	-1.4	88	-3.2	5	10	112	0.00	1011.111	0	0.000	0
20071119 00:30	-1.5	-4.5	-1.5	88	-3.2	8	16	112	0.00	1011.043	0	0.000	0
20071119 00:35	-1.6	-4.0	-1.6	88	-3.3	6	13	112	0.00	1011.043	0	0.000	0
20071119 00:40	-1.6	-1.6	-1.6	88	-3.3	5	11	135	0.00	1010.908	0	0.000	0
20071119 00:45	-1.6	-1.6	-1.6	88	-3.3	5	11	112	0.00	1010.908	0	0.000	0
20071119 00:50	-1.7	-1.7	-1.7	88	-3.4	3	10	135	0.00	1010.975	0	0.000	0
20071119 00:55	-1.6	-1.6	-1.6	88	-3.3	3	10	135	0.00	1011.043	0	0.000	0
20071119 01:00	-1.7	-1.7	-1.7	88	-3.4	3	8	157	0.00	1011.043	0	0.000	0
20071119 01:05	-1.7	-1.7	-1.7	88	-3.4	3	8	157	0.00	1010.908	0	0.000	0
20071119 01:10	-1.7	-1.7	-1.7	88	-3.4	5	8	112	0.00	1010.975	0	0.000	0
20071119 01:15	-1.7	-1.7	-1.7	88	-3.4	5	10	112	0.00	1010.941	0	0.000	0
20071119 01:20	-1.8	-1.8	-1.8	88	-3.5	3	8	135	0.00	1010.975	0	0.000	0
20071119 01:25	-1.8	-1.8	-1.8	88	-3.5	3	10	157	0.00	1011.043	0	0.000	0
20071119 01:30	-1.8	-1.8	-1.8	88	-3.6	2	6	135	0.00	1011.043	0	0.000	0
20071119 01:35	-1.8	-1.8	-1.8	88	-3.6	2	5	157	0.00	1011.077	0	0.000	0
20071119 01:40	-1.8	-1.8	-1.8	88	-3.6	2	6	157	0.00	1011.043	0	0.000	0
20071119 01:45	-1.8	-1.8	-1.8	89	-3.4	3	8	157	0.00	1011.009	0	0.000	0
20071119 01:50	-1.9	-1.9	-1.9	89	-3.5	3	8	112	0.00	1010.975	0	0.000	0
20071119 01:55	-1.9	-1.9	-1.9	89	-3.5	3	8	135	0.00	1010.941	0	0.000	0
20071119 02:00	-1.9	-1.9	-1.9	89	-3.5	3	8	135	0.00	1011.043	0	0.000	0
20071119 02:05	-1.9	-1.9	-1.9	89	-3.5	5	10	112	0.00	1011.043	0	0.000	0
20071119 02:10	-1.9	-1.9	-1.9	89	-3.5	2	5	157	0.00	1011.145	0	0.000	0
20071119 02:15	-2.0	-2.0	-2.0	89	-3.6	2	6	112	0.00	1011.077	0	0.000	0
20071119 02:20	-2.1	-2.1	-2.1	89	-3.6	3	8	135	0.00	1011.179	0	0.000	0
20071119 02:25	-2.1	-2.1	-2.1	89	-3.7	3	6	135	0.00	1011.280	0	0.000	0
20071119 02:30	-2.1	-2.1	-2.1	89	-3.7	3	8	135	0.00	1011.280	0	0.000	0
20071119 02:35	-2.1	-2.1	-2.1	90	-3.5	3	8	135	0.00	1011.348	0	0.000	0
20071119 02:40	-2.2	-2.2	-2.2	90	-3.6	2	6	202	0.00	1011.382	0	0.000	0
20071119 02:45	-2.2	-2.2	-2.2	90	-3.6	5	10	135	0.00	1011.382	0	0.000	0
20071119 02:50	-2.2	-2.2	-2.2	90	-3.6	3	8	112	0.00	1011.416	0	0.000	0
20071119 02:55	-2.2	-2.2	-2.2	90	-3.6	3	6	135	0.00	1011.416	0	0.000	0
20071119 03:00	-2.2	-2.2	-2.2	90	-3.6	2	3	157	0.00	1011.314	0	0.000	0
20071119 03:05	-2.2	-2.2	-2.2	90	-3.6	5	10	157	0.00	1011.416	0	0.000	0
20071119 03:10	-2.2	-2.2	-2.2	90	-3.6	3	8	135	0.00	1011.348	0	0.000	0
20071119 03:15	-2.3	-2.3	-2.3	90	-3.7	3	6	135	0.00	1011.246	0	0.000	0
20071119 03:20	-2.3	-2.3	-2.3	90	-3.7	3	8	135	0.00	1011.179	0	0.000	0
20071119 03:25	-2.3	-2.3	-2.3	90	-3.7	3	6	135	0.00	1011.179	0	0.000	0
20071119 03:30	-2.4	-2.4	-2.4	90	-3.9	2	8	157	0.00	1011.280	0	0.000	0
20071119 03:35	-2.4	-2.4	-2.4	90	-3.9	2	6	157	0.00	1011.314	0	0.000	0
20071119 03:40	-2.5	-2.5	-2.5	90	-3.9	2	5	157	0.00	1011.382	0	0.000	0
20071119 03:45	-2.5	-2.5	-2.5	90	-3.9	2	8	157	0.00	1011.449	0	0.000	0
20071119 03:50	-2.6	-2.6	-2.6	90	-4.0	2	3	157	0.00	1011.416	0	0.000	0
20071119 03:55	-2.6	-2.6	-2.6	90	-4.0	2	3	180	0.00	1011.619	0	0.000	0
20071119 04:00	-2.6	-2.6	-2.6	90	-4.0	2	6	157	0.00	1011.653	0	0.000	0
20071119 04:05	-2.6	-2.6	-2.6	90	-4.0	2	5	157	0.00	1011.653	0	0.000	0
20071119 04:10	-2.6	-2.6	-2.6	90	-4.0	2	5	157	0.00	1011.619	0	0.000	0
20071119 04:15	-2.6	-2.6	-2.6	90	-4.0	2	6	157	0.00	1011.551	0	0.000	0
20071119 04:20	-2.6	-2.6	-2.6	90	-4.0	2	5	157	0.00	1011.686	0	0.000	0
20071119 04:25	-2.6	-2.6	-2.6	91	-3.9	3	8	135	0.00	1011.686	0	0.000	0
20071119 04:30	-2.6	-2.6	-2.6	91	-3.9	3	8	135	0.00	1011.856	0	0.000	0
20071119 04:35	-2.7	-2.7	-2.7	91	-3.9	3	8	135	0.00	1011.754	0	0.000	0
20071119 04:40	-2.7	-2.7	-2.7	91	-4.0	2	6	135	0.00	1011.720	0	0.000	0
20071119 04:45	-2.7	-2.7	-2.7	91	-4.0	3	6	157	0.00	1011.720	0	0.000	0
20071119 04:50	-2.8	-2.8	-2.8	91	-4.0	5	10	112	0.00	1011.686	0	0.000	0
20071119 04:55	-2.8	-2.8	-2.8	91	-4.1	3	11	135	0.00	1011.720	0	0.000	0
20071119 05:00	-2.9	-2.9	-2.9	90	-4.3	3	10	135	0.00	1011.720	0	0.000	0
20071119 05:05	-2.9	-2.9	-2.9	90	-4.4	2	5	135	0.00	1011.686	0	0.000	0
20071119 05:10	-3.1	-3.1	-3.1	91	-4.3	2	6	135	0.00	1011.686	0	0.000	0
20071119 05:15	-3.2	-3.2	-3.2	91	-4.4	2	5	135	0.00	1011.788	0	0.000	0
20071119 05:20	-3.2	-3.2	-3.2	91	-4.4	0	3	135	0.00	1011.788	0	0.000	0
20071119 05:25	-3.2	-3.2	-3.2	91	-4.5	3	6	135	0.00	1011.822	0	0.000	0
20071119 05:30	-3.3	-3.3	-3.3	91	-4.5	2	5	135	0.00	1011.924	0	0.000	0
20071119 05:35	-3.3	-3.3	-3.3	91	-4.6	0	2	135	0.00	1011.924	0	0.000	0
20071119 05:40	-3.4	-3.4	-3.4	91	-4.6	0	0	135	0.00	1012.059	0	0.000	0
20071119 05:45	-3.5	-3.5	-3.5	91	-4.8	0	2	135	0.00	1011.991	0	0.000	0
20071119 05:50	-3.6	-3.6	-3.6	91	-4.8	2	3	135	0.00	1011.991	0	0.000	0
20071119 05:55	-3.6	-3.6	-3.6	92	-4.7	3	5	67	0.00	1011.991	0	0.000	0
20071119 06:00	-3.7	-3.7	-3.7	92	-4.8	3	5	67	0.00	1012.161	0	0.000	0
20071119 06:05	-3.7	-3.7	-3.7	92	-4.8	5	6	67	0.00	1012.127	0	0.000	0
20071119 06:10	-3.8	-3.8	-3.8	92	-4.9	5	6	67	0.00	1012.161	0	0.000	0
20071119 06:15	-4.0	-4.0	-4.0	92	-5.1	3	6	67	0.00	1012.296	0	0.000	0
20071119 06:20	-4.2	-4.2	-4.2	92	-5.3	5	6	67	0.00	1012.364	0	0.000	0
20071119 06:25	-4.3	-4.3	-4.3	93	-5.2	3	5	67	0.00	1012.499	0	0.000	0
20071119 06:30	-4.3	-4.3	-4.3	93	-5.2	3	5	67	0.00	1012.465	0	0.000	0
20071119 06:35	-4.3	-4.3	-4.3	93	-5.2	2	5	67	0.00	1012.533	0	0.000	0
20071119 06:40	-4.3	-4.3	-4.3	93	-5.2	0	3	67	0.00	1012.499	0	0.000	0
20071119 06:45	-4.2	-4.2	-4.2	93	-5.2	2	5	67	0.00	1012.533	0	0.000	0
20071119 06:50	-4.2	-4.2	-4.2	93	-5.2	2	5	135	0.00	1012.567	0	0.000	0
20071119 06:55	-4.2	-4.2	-4.2	93	-5.1	2	5	135	0.00	1012.465	0	0.000	0
20071119 07:00	-4.2	-4.2	-4.2	93	-5.2	3	8	135	0.00	1012.533	0	0.000	0
20071119 07:05	-4.3	-4.3	-4.3	93	-5.2	5	8	135	0.00	1012.736	0	0.000	0
20071119 07:10	-4.3	-4.3	-4.3	93	-5.2	5	10	135	0.00	1012.669	0	0.000	0
20071119 07:15	-4.3	-4.3	-4.3	93	-5.2	2	5	135	0.00	1012.872	0	0.000	0
20071119 07:20	-4.3	-4.3	-4.3	93	-5.2	2	5	135	0.00	1013.041	0	0.000	0
20071119 07:25	-4.3	-4.3	-4.3	93	-5.2	2	3	135	0.00	1013.109	1	0.000	0
20071119 07:30	-4.3	-4.3	-4.3	93	-5.2	0	2	135	0.00	1013.177	5	0.000	0
20071119 07:35	-4.3	-4.3	-4.3	93	-5.2	0	2	135	0.00	1013.278	8	0.000	0
20071119 07:40	-4.3	-4.3	-4.3	93	-5.2	2	5	135	0.00	1013.346	11	0.000	0
20071119 07:45	-4.3	-4.3	-4.3	93	-5.3	2	5	135	0.00	1013.278	15	0.000	0
20071119 07:50	-4.3	-4.3	-4.3	93	-5.3	2	5	135	0.00	1013.481	17	0.000	0
20071119 07:55	-4.3	-4.3	-4.3	93	-5.2	2	5	135	0.00	1013.447	19	0.000	0
20071119 08:00	-4.2	-4.2	-4.2	93	-5.2	2	5	135	0.00	1013.583	20	0.000	0
20071119 08:05	-4.2	-4.2	-4.2	93	-5.1	0	3	135	0.00	1013.515	23	0.000	0
20071119 08:10	-4.1	-4.1	-4.1	93	-5.0	2	3	135	0.00	1013.481	24	0.000	0
20071119 08:15	-4.0	-4.0	-4.0	93	-5.0	2	5	135	0.00	1013.447	25	0.000	0
20071119 08:20	-3.9	-3.9	-3.9	92	-5.0	3	5	135	0.00	1013.447	26	0.000	0
20071119 08:25	-3.8	-3.8	-3.8	92	-4.9	5	6	135	0.00	1013.481	28	0.000	0
20071119 08:30	-3.8	-3.8	-3.8	92	-4.9	2	6	135	0.00	1013.515	29	0.000	0
20071119 08:35	-3.7	-3.7	-3.7	92	-4.8	0	2	135	0.00	1013.617	31	0.000	0
20071119 08:40	-3.7	-3.7	-3.7	92	-4.8	0	5	135	0.00	1013.583	32	0.000	0
20071119 08:45	-3.6	-3.6	-3.6	92	-4.7	2	6	135	0.00	1013.583	32	0.000	0
20071119 08:50	-3.4	-3.4	-3.4	92	-4.6	3	8	135	0.00	1013.651	32	0.000	0
20071119 08:55	-3.4	-3.4	-3.4	92	-4.5	2	5	135	0.00	1013.752	36	0.000	0
20071119 09:00	-3.3	-3.3	-3.3	92	-4.4	0	2	135	0.00	1013.854	40	0.000	0
20071119 09:05	-3.3	-3.3	-3.3	92	-4.4	2	5	135	0.00	1013.888	40	0.000	0
20071119 09:10	-3.2	-3.2	-3.2	91	-4.5	2	3	135	0.00	1013.922	42	0.000	0
20071119 09:15	-3.1	-3.1	-3.1	91	-4.3	2	5	135	0.00	1013.922	44	0.000	0
20071119 09:20	-2.9	-2.9	-2.9	91	-4.1	3	8	112	0.00	1013.888	47	0.000	0
20071119 09:25	-2.7	-2.7	-2.7	90	-4.1	3	6	90	0.00	1013.820	51	0.000	0
20071119 09:30	-2.6	-2.6	-2.6	90	-4.0	3	6	135	0.00	1013.786	55	0.000	0
20071119 09:35	-2.4	-2.4	-2.4	88	-4.2	5	11	135	0.00	1013.718	60	0.000	0
20071119 09:40	-2.3	-2.3	-2.3	88	-4.0	3	8	135	0.00	1013.684	68	0.000	0
20071119 09:45	-2.2	-2.2	-2.2	87	-4.0	3	6	135	0.00	1013.617	79	0.000	1
20071119 09:50	-2.1	-2.1	-2.1	87	-3.9	3	6	135	0.00	1013.651	86	0.000	1
20071119 09:55	-2.0	-2.0	-2.0	86	-4.0	5	10	135	0.00	1013.617	90	0.000	1
20071119 10:00	-1.9	-1.9	-1.9	86	-4.0	5	8	135	0.00	1013.684	94	0.020	1
20071119 10:05	-1.9	-1.9	-1.9	86	-3.9	5	10	135	0.00	1013.752	97	0.000	1
20071119 10:10	-1.8	-1.8	-1.8	86	-3.8	3	8	135	0.00	1013.922	106	0.000	1
20071119 10:15	-1.7	-1.7	-1.7	86	-3.8	3	8	135	0.00	1013.955	113	0.000	1
20071119 10:20	-1.6	-1.6	-1.6	85	-3.7	5	8	135	0.00	1013.989	120	0.000	1
20071119 10:25	-1.4	-1.4	-1.4	85	-3.6	5	10	135	0.00	1014.057	127	0.000	1
20071119 10:30	-1.3	-1.3	-1.3	84	-3.6	5	10	135	0.00	1013.955	135	0.000	1
20071119 10:35	-1.2	-1.2	-1.2	84	-3.5	5	10	112	0.00	1014.057	143	0.000	1
20071119 10:40	-1.1	-1.1	-1.1	83	-3.6	5	10	135	0.00	1013.989	156	0.000	1
20071119 10:45	-0.9	-0.9	-0.9	84	-3.3	5	10	135	0.00	1014.091	183	0.000	1
20071119 10:50	-0.8	-0.8	-0.8	83	-3.3	3	8	135	0.00	1014.260	221	0.000	1
20071119 10:55	-0.7	-0.7	-0.7	83	-3.2	5	8	135	0.00	1014.294	220	0.000	1
20071119 11:00	-0.5	-0.5	-0.5	83	-3.0	2	3	135	0.00	1014.294	219	0.040	1
20071119 11:05	-0.4	-0.4	-0.4	82	-3.1	2	6	135	0.00	1014.328	225	0.000	1
20071119 11:10	-0.3	-0.3	-0.3	82	-3.0	2	5	135	0.00	1014.294	227	0.000	1
20071119 11:15	-0.2	-0.2	-0.2	83	-2.8	3	6	135	0.00	1014.328	229	0.000	1
20071119 11:20	-0.2	-0.2	-0.2	83	-2.8	3	6	67	0.00	1014.294	239	0.000	1
20071119 11:25	-0.3	-0.3	-0.3	83	-2.8	3	6	67	0.00	1014.294	234	0.000	1
20071119 11:30	-0.3	-0.3	-0.3	83	-2.8	3	6	67	0.00	1014.362	237	0.000	1
20071119 11:35	-0.2	-0.2	-0.2	83	-2.8	3	6	45	0.00	1014.362	242	0.000	1
20071119 11:40	-0.2	-0.2	-0.2	85	-2.4	3	6	67	0.00	1014.429	241	0.000	1
20071119 11:45	-0.2	-0.2	-0.2	85	-2.4	3	5	67	0.00	1014.531	245	0.000	1
20071119 11:50	-0.1	-0.1	-0.1	86	-2.1	3	8	67	0.00	1014.463	238	0.000	1
20071119 11:55	-0.1	-0.1	-0.1	85	-2.3	5	6	67	0.00	1014.429	235	0.000	1
20071119 12:00	-0.3	-0.3	-0.3	87	-2.2	3	6	45	0.00	1014.429	236	0.060	1
20071119 12:05	-0.3	-0.3	-0.3	87	-2.2	5	8	45	0.00	1014.463	237	0.000	1
20071119 12:10	-0.4	-0.4	-0.4	87	-2.3	5	8	67	0.20	1014.463	232	0.000	1
20071119 12:15	-0.3	-0.3	-0.3	88	-2.1	5	8	45	0.00	1014.599	225	0.000	1
20071119 12:20	-0.5	-2.8	-0.5	87	-2.4	6	11	22	0.00	1014.633	223	0.000	1
20071119 12:25	-0.6	-2.9	-0.6	88	-2.3	6	10	22	0.00	1014.633	217	0.000	1
20071119 12:30	-0.6	-0.6	-0.6	89	-2.2	5	8	45	0.00	1014.599	214	0.000	1
20071119 12:35	-0.5	-0.5	-0.5	88	-2.2	3	6	67	0.00	1014.700	209	0.000	1
20071119 12:40	-0.6	-0.6	-0.6	88	-2.3	5	8	67	0.00	1014.734	202	0.000	1
20071119 12:45	-0.6	-0.6	-0.6	88	-2.3	3	6	45	0.00	1014.802	199	0.000	1
20071119 12:50	-0.5	-0.5	-0.5	88	-2.2	3	10	45	0.00	1014.937	194	0.000	1
20071119 12:55	-0.6	-0.6	-0.6	88	-2.3	5	10	45	0.00	1014.971	186	0.000	1
20071119 13:00	-0.6	-0.6	-0.6	88	-2.3	5	8	67	0.00	1015.039	194	0.060	1
20071119 13:05	-0.7	-0.7	-0.7	89	-2.3	5	10	67	0.00	1015.073	190	0.000	1
20071119 13:10	-0.7	-2.9	-0.7	89	-2.3	6	10	67	0.00	1015.005	196	0.000	1
20071119 13:15	-0.6	-0.6	-0.6	89	-2.2	5	8	67	0.00	1015.073	199	0.000	1
20071119 13:20	-0.6	-0.6	-0.6	89	-2.1	5	8	67	0.00	1015.208	193	0.000	1
20071119 13:25	-0.5	-0.5	-0.5	89	-2.1	5	8	67	0.00	1015.107	184	0.000	1
20071119 13:30	-0.3	-0.3	-0.3	89	-1.9	5	8	45	0.00	1015.073	187	0.000	1
20071119 13:35	-0.3	-0.3	-0.3	88	-2.0	3	6	90	0.00	1015.208	182	0.000	1
20071119 13:40	-0.2	-0.2	-0.2	88	-2.0	3	6	67	0.00	1015.378	177	0.000	1
20071119 13:45	-0.2	-0.2	-0.2	88	-2.0	3	6	45	0.00	1015.378	175	0.000	1
20071119 13:50	-0.2	-0.2	-0.2	88	-1.9	3	6	45	0.00	1015.411	171	0.000	1
20071119 13:55	-0.1	-0.1	-0.1	88	-1.9	3	5	45	0.00	1015.445	170	0.000	1
20071119 14:00	-0.1	-0.1	-0.1	88	-1.8	3	5	45	0.00	1015.445	169	0.040	1
20071119 14:05	0.0	0.0	0.0	88	-1.7	3	5	45	0.00	1015.479	165	0.000	1
20071119 14:10	0.1	0.1	0.1	88	-1.7	2	5	45	0.00	1015.479	160	0.000	1
20071119 14:15	0.2	0.2	0.2	88	-1.6	2	6	22	0.00	1015.615	155	0.000	0
20071119 14:20	0.2	0.2	0.2	87	-1.7	2	3	315	0.00	1015.615	150	0.000	0
20071119 14:25	0.3	0.3	0.3	87	-1.6	2	5	22	0.00	1015.750	135	0.000	0
20071119 14:30	0.3	0.3	0.3	87	-1.6	5	6	22	0.00	1015.615	124	0.000	0
20071119 14:35	0.2	0.2	0.2	87	-1.7	3	6	67	0.00	1015.581	120	0.000	0
20071119 14:40	0.2	0.2	0.2	87	-1.7	3	6	67	0.00	1015.547	115	0.000	0
20071119 14:45	0.2	0.2	0.2	87	-1.7	3	5	67	0.00	1015.581	109	0.000	0
20071119 14:50	0.2	0.2	0.2	87	-1.7	3	5	67	0.00	1015.513	100	0.000	0
20071119 14:55	0.2	0.2	0.2	88	-1.6	2	5	67	0.00	1015.547	93	0.000	0
20071119 15:00	0.2	0.2	0.2	88	-1.5	0	3	67	0.00	1015.581	88	0.040	0
20071119 15:05	0.2	0.2	0.2	88	-1.5	0	2	67	0.00	1015.716	84	0.000	0
20071119 15:10	0.2	0.2	0.2	87	-1.7	0	0	67	0.00	1015.716	77	0.000	0
20071119 15:15	0.2	0.2	0.2	88	-1.5	0	0	67	0.00	1015.784	69	0.000	0
20071119 15:20	0.2	0.2	0.2	88	-1.5	2	3	67	0.00	1015.784	62	0.000	0
20071119 15:25	0.2	0.2	0.2	88	-1.5	0	2	67	0.00	1015.818	55	0.000	0
20071119 15:30	0.2	0.2	0.2	87	-1.7	0	3	67	0.00	1015.818	51	0.000	0
20071119 15:35	0.2	0.2	0.2	88	-1.5	0	2	67	0.00	1015.886	47	0.000	0
20071119 15:40	0.2	0.2	0.2	88	-1.6	0	2	67	0.00	1015.919	42	0.000	0
20071119 15:45	0.2	0.2	0.2	88	-1.6	0	0	67	0.00	1016.021	37	0.000	0
20071119 15:50	0.2	0.2	0.2	88	-1.6	0	2	67	0.00	1016.055	33	0.000	0
20071119 15:55	0.1	0.1	0.1	88	-1.6	0	2	67	0.00	1016.258	28	0.000	0
20071119 16:00	0.1	0.1	0.1	88	-1.7	0	0	67	0.00	1016.190	24	0.020	0
20071119 16:05	0.1	0.1	0.1	88	-1.7	0	0	67	0.00	1016.190	20	0.000	0
20071119 16:10	-0.1	-0.1	-0.1	88	-1.8	0	0	67	0.00	1016.190	14	0.000	0
20071119 16:15	-0.1	-0.1	-0.1	89	-1.7	0	3	67	0.00	1016.055	11	0.000	0
20071119 16:20	-0.2	-0.2	-0.2	89	-1.8	0	3	67	0.00	1016.055	7	0.000	0
20071119 16:25	-0.2	-0.2	-0.2	89	-1.8	0	2	67	0.00	1016.055	2	0.000	0
20071119 16:30	-0.3	-0.3	-0.3	89	-1.9	0	2	67	0.00	1016.123	0	0.000	0
20071119 16:35	-0.3	-0.3	-0.3	89	-1.9	2	5	67	0.00	1015.987	0	0.000	0
20071119 16:40	-0.4	-0.4	-0.4	90	-1.9	2	5	112	0.00	1016.123	0	0.000	0
20071119 16:45	-0.5	-0.5	-0.5	90	-1.9	0	0	112	0.00	1016.292	0	0.000	0
20071119 16:50	-0.5	-0.5	-0.5	90	-1.9	0	0	112	0.00	1016.326	0	0.000	0
20071119 16:55	-0.6	-0.6	-0.6	90	-2.0	0	2	112	0.00	1016.326	0	0.000	0
20071119 17:00	-0.7	-0.7	-0.7	90	-2.1	0	3	112	0.00	1016.292	0	0.000	0
20071119 17:05	-0.7	-0.7	-0.7	90	-2.1	0	2	112	0.00	1016.495	0	0.000	0
20071119 17:10	-0.7	-0.7	-0.7	90	-2.2	0	0	112	0.00	1016.529	0	0.000	0
20071119 17:15	-0.8	-0.8	-0.8	90	-2.2	0	0	112	0.00	1016.427	0	0.000	0
20071119 17:20	-0.8	-0.8	-0.8	90	-2.3	0	2	112	0.00	1016.394	0	0.000	0
20071119 17:25	-0.9	-0.9	-0.9	91	-2.2	0	0	112	0.00	1016.495	0	0.000	0
20071119 17:30	-0.9	-0.9	-0.9	91	-2.2	0	0	112	0.00	1016.732	0	0.000	0
20071119 17:35	-1.0	-1.0	-1.0	91	-2.3	0	2	112	0.00	1016.834	0	0.000	0
20071119 17:40	-1.1	-1.1	-1.1	91	-2.4	0	2	112	0.00	1016.901	0	0.000	0
20071119 17:45	-1.2	-1.2	-1.2	91	-2.4	0	0	112	0.00	1016.732	0	0.000	0
20071119 17:50	-1.3	-1.3	-1.3	91	-2.6	0	0	112	0.00	1016.766	0	0.000	0
20071119 17:55	-1.3	-1.3	-1.3	91	-2.6	2	3	112	0.00	1016.935	0	0.000	0
20071119 18:00	-1.4	-1.4	-1.4	92	-2.5	0	3	112	0.00	1016.969	0	0.000	0
20071119 18:05	-1.4	-1.4	-1.4	92	-2.5	0	0	112	0.00	1017.003	0	0.000	0
20071119 18:10	-1.4	-1.4	-1.4	91	-2.7	0	0	112	0.00	1017.274	0	0.000	0
20071119 18:15	-1.5	-1.5	-1.5	92	-2.6	0	0	112	0.00	1017.308	0	0.000	0
20071119 18:20	-1.6	-1.6	-1.6	92	-2.7	0	0	112	0.00	1017.308	0	0.000	0
20071119 18:25	-1.4	-1.4	-1.4	92	-2.6	0	0	112	0.00	1017.308	0	0.000	0
20071119 18:30	-1.4	-1.4	-1.4	92	-2.6	0	0	112	0.00	1017.308	0	0.000	0
20071119 18:35	-1.5	-1.5	-1.5	92	-2.6	0	0	112	0.00	1017.409	0	0.000	0
20071119 18:40	-1.6	-1.6	-1.6	92	-2.7	0	2	112	0.00	1017.409	0	0.000	0
20071119 18:45	-1.6	-1.6	-1.6	92	-2.7	0	0	112	0.00	1017.477	0	0.000	0
20071119 18:50	-1.7	-1.7	-1.7	92	-2.8	0	0	112	0.00	1017.443	0	0.000	0
20071119 18:55	-1.7	-1.7	-1.7	93	-2.6	0	0	112	0.00	1017.545	0	0.000	0
20071119 19:00	-1.7	-1.7	-1.7	92	-2.8	0	0	112	0.00	1017.477	0	0.000	0
20071119 19:05	-1.7	-1.7	-1.7	92	-2.8	0	0	112	0.00	1017.443	0	0.000	0
20071119 19:10	-1.7	-1.7	-1.7	93	-2.7	0	0	112	0.00	1017.409	0	0.000	0
20071119 19:15	-1.8	-1.8	-1.8	93	-2.8	0	0	112	0.00	1017.376	0	0.000	0
20071119 19:20	-1.7	-1.7	-1.7	93	-2.7	0	0	112	0.00	1017.443	0	0.000	0
20071119 19:25	-1.8	-1.8	-1.8	93	-2.8	0	0	112	0.00	1017.274	0	0.000	0
20071119 19:30	-1.8	-1.8	-1.8	93	-2.8	2	3	112	0.00	1017.206	0	0.000	0
20071119 19:35	-1.7	-1.7	-1.7	93	-2.7	0	3	112	0.00	1017.105	0	0.000	0
20071119 19:40	-1.7	-1.7	-1.7	93	-2.7	0	3	112	0.00	1017.105	0	0.000	0
20071119 19:45	-1.7	-1.7	-1.7	93	-2.7	0	2	112	0.00	1017.139	0	0.000	0
20071119 19:50	-1.7	-1.7	-1.7	93	-2.7	2	3	112	0.00	1017.071	0	0.000	0
20071119 19:55	-1.8	-1.8	-1.8	93	-2.8	0	2	112	0.00	1017.105	0	0.000	0
20071119 20:00	-1.8	-1.8	-1.8	93	-2.8	3	5	112	0.00	1016.901	0	0.000	0
20071119 20:05	-1.8	-1.8	-1.8	93	-2.8	3	5	112	0.00	1016.834	0	0.000	0
20071119 20:10	-1.7	-1.7	-1.7	93	-2.7	3	5	112	0.00	1016.698	0	0.000	0
20071119 20:15	-1.7	-1.7	-1.7	93	-2.7	3	5	112	0.00	1016.529	0	0.000	0
20071119 20:20	-1.8	-1.8	-1.8	93	-2.8	3	8	112	0.00	1016.394	0	0.000	0
20071119 20:25	-1.8	-1.8	-1.8	93	-2.8	5	8	135	0.00	1016.292	0	0.000	0
20071119 20:30	-1.8	-1.8	-1.8	93	-2.8	5	10	135	0.00	1016.089	0	0.000	0
20071119 20:35	-1.8	-1.8	-1.8	93	-2.8	2	5	135	0.00	1016.089	0	0.000	0
20071119 20:40	-1.8	-1.8	-1.8	93	-2.8	0	2	135	0.00	1016.055	0	0.000	0
20071119 20:45	-1.8	-1.8	-1.8	93	-2.8	2	3	135	0.00	1016.089	0	0.000	0
20071119 20:50	-1.7	-1.7	-1.7	93	-2.6	3	10	135	0.00	1016.055	0	0.000	0
20071119 20:55	-1.4	-3.8	-1.4	93	-2.4	6	10	135	0.00	1016.055	0	0.000	0
20071119 21:00	-1.4	-1.4	-1.4	93	-2.4	3	8	90	0.00	1015.953	0	0.000	0
20071119 21:05	-1.3	-1.3	-1.3	93	-2.3	3	8	90	0.00	1015.784	0	0.000	0
20071119 21:10	-1.4	-1.4	-1.4	93	-2.4	3	8	90	0.00	1015.886	0	0.000	0
20071119 21:15	-1.4	-1.4	-1.4	93	-2.4	3	6	67	0.00	1015.784	0	0.000	0
20071119 21:20	-1.5	-1.5	-1.5	92	-2.6	2	6	90	0.00	1016.089	0	0.000	0
20071119 21:25	-1.5	-1.5	-1.5	92	-2.6	2	3	157	0.00	1015.953	0	0.000	0
20071119 21:30	-1.6	-1.6	-1.6	92	-2.7	2	3	157	0.00	1016.123	0	0.000	0
20071119 21:35	-1.7	-1.7	-1.7	92	-2.8	0	2	157	0.00	1016.190	0	0.000	0
20071119 21:40	-1.8	-1.8	-1.8	92	-2.9	0	0	157	0.00	1016.258	0	0.000	0
20071119 21:45	-1.8	-1.8	-1.8	92	-3.0	0	0	157	0.00	1016.326	0	0.000	0
20071119 21:50	-1.9	-1.9	-1.9	92	-3.1	0	0	157	0.00	1016.360	0	0.000	0
20071119 21:55	-2.0	-2.0	-2.0	92	-3.1	0	0	157	0.00	1016.529	0	0.000	0
20071119 22:00	-2.1	-2.1	-2.1	93	-3.0	0	0	157	0.00	1016.326	0	0.000	0
20071119 22:05	-2.1	-2.1	-2.1	93	-3.1	0	0	157	0.00	1016.326	0	0.000	0
20071119 22:10	-2.2	-2.2	-2.2	92	-3.3	0	0	157	0.00	1016.224	0	0.000	0
20071119 22:15	-2.2	-2.2	-2.2	93	-3.2	0	0	157	0.00	1016.190	0	0.000	0
20071119 22:20	-2.2	-2.2	-2.2	93	-3.2	0	0	157	0.00	1016.326	0	0.000	0
20071119 22:25	-2.2	-2.2	-2.2	93	-3.2	0	0	157	0.00	1016.224	0	0.000	0
20071119 22:30	-2.2	-2.2	-2.2	93	-3.2	0	0	157	0.00	1016.224	0	0.000	0
20071119 22:35	-2.3	-2.3	-2.3	93	-3.3	0	0	157	0.00	1016.190	0	0.000	0
20071119 22:40	-2.3	-2.3	-2.3	93	-3.3	0	0	157	0.00	1016.089	0	0.000	0
20071119 22:45	-2.3	-2.3	-2.3	93	-3.3	0	0	157	0.00	1016.156	0	0.000	0
20071119 22:50	-2.3	-2.3	-2.3	93	-3.3	0	0	157	0.00	1016.156	0	0.000	0
20071119 22:55	-2.4	-2.4	-2.4	93	-3.4	0	0	157	0.00	1016.190	0	0.000	0
20071119 23:00	-2.5	-2.5	-2.5	93	-3.5	0	0	157	0.00	1016.089	0	0.000	0
20071119 23:05	-2.5	-2.5	-2.5	93	-3.5	0	0	157	0.00	1016.055	0	0.000	0
20071119 23:10	-2.5	-2.5	-2.5	93	-3.5	0	0	157	0.00	1016.190	0	0.000	0
20071119 23:15	-2.6	-2.6	-2.6	93	-3.5	0	0	157	0.00	1016.190	0	0.000	0
20071119 23:20	-2.5	-2.5	-2.5	93	-3.5	0	0	157	0.00	1016.190	0	0.000	0
20071119 23:25	-2.5	-2.5	-2.5	100	-2.5	0	2	157	0.00	1016.292	0	0.000	0
20071119 23:30	-2.4	-2.4	-2.4	93	-3.4	0	3	157	0.00	1016.360	0	0.000	0
20071119 23:35	-2.4	-2.4	-2.4	93	-3.4	3	5	157	0.00	1016.394	0	0.000	0
20071119 23:40	-2.3	-2.3	-2.3	94	-3.2	3	5	157	0.00	1016.495	0	0.000	0
20071119 23:45	-2.3	-2.3	-2.3	94	-3.2	3	5	157	0.00	1016.495	0	0.000	0
20071119 23:50	-2.3	-2.3	-2.3	94	-3.1	2	5	157	0.00	1016.394	0	0.000	0
20071119 23:55	-2.3	-2.3	-2.3	94	-3.1	3	6	157	0.00	1016.394	0	0.000	0
20071119 24:00	-2.2	-2.2	-2.2	94	-3.1	3	5	112	0.00	1016.461	0	0.000	0



Please note the license to use and transfer of this data:
http://creativecommons.org/licenses/by-nc-sa/3.0/deed.en

Bitte beachten sie die Lizenz zur Verwertung und Weitergabe der Daten:
http://creativecommons.org/licenses/by-nc-sa/3.0/deed.de

zurück zur Übersicht der Archivdaten (Monats und Tagesdaten)

Cookies helfen bei der Bereitstellung von Inhalten. Durch die Nutzung dieser Seiten erklärst du dich damit einverstanden, dass Cookies auf deinem Rechner gespeichert werden. Weitere Information